Time;durP1;ratioP1;P1;durP2;ratioP2;P2;SDS_P1;SDS_P2;PMS_P1;PMS_P2;Temp;Humidity;BMP_temperature;BMP_pressure;BME280_temperature;BME280_humidity;BME280_pressure;Samples;Min_cycle;Max_cycle;Signal;HPM_P1;HPM_P2
2023/08/24 00:01:14;;;;;;;20.63;10.73;;;;;;;29.87;43.78;101100.41;6096289;23;20021;-78
2023/08/24 00:03:40;;;;;;;17.05;10.45;;;;;;;29.91;43.48;101117.97;6097939;23;20339;-80
2023/08/24 00:06:07;;;;;;;16.80;11.10;;;;;;;29.76;43.93;101088.50;6090074;23;20056;-79
2023/08/24 00:08:34;;;;;;;14.90;10.60;;;;;;;29.73;43.61;101099.09;6120557;23;20032;-78
2023/08/24 00:11:01;;;;;;;18.98;10.93;;;;;;;29.77;43.97;101111.22;6099320;23;20025;-79
2023/08/24 00:13:28;;;;;;;26.02;10.95;;;;;;;29.42;44.03;101060.38;6078099;23;20566;-79
2023/08/24 00:16:00;;;;;;;14.88;10.30;;;;;;;29.64;44.24;101090.50;6107502;23;20021;-78
2023/08/24 00:18:28;;;;;;;17.50;11.25;;;;;;;29.68;44.25;101113.53;6105667;23;20099;-79
2023/08/24 00:20:56;;;;;;;17.33;11.57;;;;;;;29.40;44.19;101070.72;6143381;23;20025;-79
2023/08/24 00:23:22;;;;;;;19.58;11.38;;;;;;;29.53;44.60;101102.34;6108976;23;20365;-80
2023/08/24 00:25:49;;;;;;;17.63;11.45;;;;;;;29.61;44.54;101112.84;6119240;23;20029;-79
2023/08/24 00:28:16;;;;;;;16.13;11.95;;;;;;;29.50;44.07;101105.59;6122203;23;20721;-78
2023/08/24 00:30:43;;;;;;;17.20;10.85;;;;;;;29.37;44.41;101093.06;6102335;23;20021;-79
2023/08/24 00:33:13;;;;;;;18.58;11.23;;;;;;;29.47;44.64;101117.88;6094080;23;20535;-80
2023/08/24 00:35:40;;;;;;;14.52;10.52;;;;;;;29.35;44.42;101098.81;6100841;23;20021;-79
2023/08/24 00:38:12;;;;;;;14.98;11.15;;;;;;;29.43;44.61;101107.66;6078378;23;20335;-77
2023/08/24 00:40:46;;;;;;;15.82;11.07;;;;;;;29.46;44.67;101120.84;6092532;23;20021;-78
2023/08/24 00:43:17;;;;;;;14.90;10.30;;;;;;;29.43;44.89;101116.69;6068297;23;20013;-79
2023/08/24 00:45:48;;;;;;;17.05;11.95;;;;;;;29.43;44.75;101121.34;6150717;23;20025;-79
2023/08/24 00:48:19;;;;;;;16.60;10.65;;;;;;;29.39;44.98;101121.00;6116868;23;20088;-76
2023/08/24 00:50:46;;;;;;;;;;;;;;;29.34;45.59;101123.66;6104804;23;20023;-78
2023/08/24 00:53:13;;;;;;;11.27;9.73;;;;;;;29.33;46.67;101117.38;6115234;23;19920;-78
2023/08/24 00:55:39;;;;;;;16.85;10.25;;;;;;;29.41;45.41;101124.31;6091902;23;20095;-78
2023/08/24 00:58:07;;;;;;;15.15;11.05;;;;;;;29.40;44.97;101128.97;6103248;23;20273;-79
2023/08/24 01:00:34;;;;;;;16.88;10.80;;;;;;;29.39;44.59;101127.28;6146162;23;20029;-78
2023/08/24 01:03:01;;;;;;;18.27;10.60;;;;;;;29.32;44.92;101120.34;6121008;23;20453;-78
2023/08/24 01:05:28;;;;;;;16.50;10.40;;;;;;;29.36;44.52;101126.97;6082616;23;20095;-79
2023/08/24 01:07:58;;;;;;;21.65;10.48;;;;;;;29.37;44.41;101117.69;6115056;23;20079;-78
2023/08/24 01:10:33;;;;;;;18.35;11.07;;;;;;;29.11;44.36;101092.69;6115804;23;20060;-77
2023/08/24 01:13:10;;;;;;;15.35;10.40;;;;;;;28.91;44.75;101065.81;6114794;23;20020;-78
2023/08/24 01:15:55;;;;;;;19.50;10.65;;;;;;;29.15;45.03;101117.59;6129179;23;20021;-79
2023/08/24 01:18:26;;;;;;;13.02;9.70;;;;;;;29.14;45.09;101107.75;6100707;23;20337;-79
2023/08/24 01:20:54;;;;;;;;;;;;;;;29.08;45.50;101114.19;6140204;23;20388;-77
2023/08/24 01:23:40;;;;;;;15.48;9.60;;;;;;;28.93;44.81;101088.25;6116014;23;19987;-79
2023/08/24 01:26:24;;;;;;;13.00;9.98;;;;;;;28.87;45.28;101085.69;6083619;23;20096;-79
2023/08/24 01:28:59;;;;;;;16.05;10.40;;;;;;;28.99;44.64;101108.28;6058879;23;20282;-78
2023/08/24 01:31:30;;;;;;;17.65;9.73;;;;;;;28.94;45.04;101097.28;6104156;23;20024;-78
2023/08/24 01:33:56;;;;;;;12.57;10.80;;;;;;;28.97;44.89;101107.72;6122016;23;20561;-79
2023/08/24 01:36:26;;;;;;;19.35;10.57;;;;;;;29.01;44.86;101102.56;6091166;23;20817;-79
2023/08/24 01:39:11;;;;;;;22.98;9.70;;;;;;;28.95;45.14;101098.91;6119813;23;20040;-77
2023/08/24 01:41:42;;;;;;;15.52;9.80;;;;;;;28.68;44.55;101050.38;6138343;23;20020;-78
2023/08/24 01:44:13;;;;;;;14.75;9.82;;;;;;;28.91;44.51;101093.13;6112791;23;20140;-78
2023/08/24 01:46:43;;;;;;;14.88;10.52;;;;;;;28.92;44.43;101099.41;6109364;23;20021;-79
2023/08/24 01:49:13;;;;;;;17.73;10.00;;;;;;;28.81;44.66;101087.47;6113100;23;20450;-77
2023/08/24 01:51:42;;;;;;;17.27;10.10;;;;;;;28.76;44.72;101079.19;6103601;23;20492;-78
2023/08/24 01:54:12;;;;;;;24.45;10.38;;;;;;;28.86;44.73;101094.94;6128775;23;20382;-79
2023/08/24 01:56:42;;;;;;;21.20;10.40;;;;;;;28.83;44.76;101100.91;6103384;23;20017;-79
2023/08/24 01:59:09;;;;;;;15.40;9.45;;;;;;;28.83;45.28;101117.28;6103488;23;20076;-77
2023/08/24 02:01:35;;;;;;;19.15;10.48;;;;;;;28.74;45.56;101125.91;6131756;23;20017;-78
2023/08/24 02:04:04;;;;;;;25.50;11.07;;;;;;;28.39;45.47;101062.38;6118768;23;20195;-79
2023/08/24 02:06:31;;;;;;;12.60;9.85;;;;;;;28.67;45.48;101119.75;6099744;23;20296;-78
2023/08/24 02:08:58;;;;;;;13.10;10.05;;;;;;;28.76;47.81;101140.13;6117418;23;20208;-78
2023/08/24 02:11:24;;;;;;;14.95;9.40;;;;;;;28.40;48.13;101075.78;6104421;23;20043;-79
2023/08/24 02:13:51;;;;;;;16.10;10.73;;;;;;;28.80;48.66;101107.69;6096171;23;20284;-79
2023/08/24 02:16:18;;;;;;;13.95;10.85;;;;;;;29.01;48.71;101127.16;6118886;23;20030;-79
2023/08/24 02:18:45;;;;;;;17.80;11.38;;;;;;;29.13;46.61;101127.97;6110998;23;20033;-79
2023/08/24 02:21:14;;;;;;;12.30;9.38;;;;;;;29.02;49.29;101115.16;6103560;23;20092;-78
2023/08/24 02:23:41;;;;;;;14.93;11.25;;;;;;;29.04;48.63;101102.91;6094310;23;20037;-79
2023/08/24 02:26:07;;;;;;;21.70;10.70;;;;;;;29.14;49.25;101111.31;6117657;23;20025;-79
2023/08/24 02:28:37;;;;;;;19.83;11.95;;;;;;;29.22;46.75;101115.53;6112684;23;20020;-79
2023/08/24 02:31:04;;;;;;;13.02;10.30;;;;;;;29.21;48.67;101113.88;6091795;23;20116;-78
2023/08/24 02:33:37;;;;;;;16.35;11.48;;;;;;;29.13;46.47;101106.94;6109383;23;20027;-79
2023/08/24 02:36:04;;;;;;;16.88;9.73;;;;;;;29.10;50.19;101121.06;6103102;23;20543;-79
2023/08/24 02:38:30;;;;;;;16.27;10.48;;;;;;;29.19;48.52;101129.69;6112530;23;20017;-78
2023/08/24 02:41:02;;;;;;;18.30;13.07;;;;;;;29.15;46.84;101139.47;6116272;23;20032;-79
2023/08/24 02:43:29;;;;;;;16.40;12.18;;;;;;;28.91;48.37;101125.06;6092021;23;20268;-78
2023/08/24 02:46:05;;;;;;;18.50;12.30;;;;;;;28.88;47.68;101120.09;6088027;23;20028;-79
2023/08/24 02:48:32;;;;;;;20.23;12.85;;;;;;;28.82;47.45;101137.50;6100305;23;20017;-79
2023/08/24 02:51:04;;;;;;;19.42;13.93;;;;;;;28.64;47.17;101113.94;6092828;23;20079;-77
2023/08/24 02:53:33;;;;;;;19.35;12.88;;;;;;;28.60;47.36;101123.72;6085172;23;20526;-78
2023/08/24 02:56:00;;;;;;;21.58;13.48;;;;;;;28.36;47.68;101117.47;6125133;23;20019;-79
2023/08/24 02:58:30;;;;;;;17.80;13.68;;;;;;;28.34;48.17;101145.00;6094703;23;20061;-79
2023/08/24 03:01:05;;;;;;;20.80;14.23;;;;;;;28.30;48.39;101135.63;6073179;23;20024;-79
2023/08/24 03:03:37;;;;;;;18.30;13.57;;;;;;;28.04;48.87;101126.09;6113218;23;20043;-79
2023/08/24 03:06:05;;;;;;;30.35;14.90;;;;;;;28.01;49.68;101116.47;6138402;23;20021;-78
2023/08/24 03:08:34;;;;;;;24.77;14.43;;;;;;;27.83;49.45;101103.78;6090504;23;20044;-79
2023/08/24 03:11:05;;;;;;;37.67;15.25;;;;;;;27.95;49.52;101122.06;6095679;23;20632;-78
2023/08/24 03:13:36;;;;;;;26.58;14.32;;;;;;;27.82;49.63;101113.06;6092910;23;20206;-76
2023/08/24 03:16:04;;;;;;;;;;;;;;;27.85;50.24;101139.84;6095229;23;20024;-77
2023/08/24 03:18:34;;;;;;;23.73;14.93;;;;;;;27.77;50.17;101134.75;6097119;23;19923;-78
2023/08/24 03:21:01;;;;;;;28.20;14.90;;;;;;;27.79;50.40;101140.75;6104875;23;20033;-77
2023/08/24 03:23:33;;;;;;;23.42;15.57;;;;;;;27.51;50.19;101105.22;6106509;23;20017;-78
2023/08/24 03:26:01;;;;;;;21.88;14.18;;;;;;;27.64;50.13;101132.25;6112098;23;20092;-79
2023/08/24 03:28:28;;;;;;;20.35;14.40;;;;;;;27.69;50.47;101146.81;6090461;23;20345;-79
2023/08/24 03:30:55;;;;;;;24.73;14.02;;;;;;;27.61;50.63;101139.00;6095304;23;20345;-79
2023/08/24 03:33:28;;;;;;;17.95;12.55;;;;;;;27.64;50.70;101143.97;6091675;23;20031;-79
2023/08/24 03:35:57;;;;;;;23.85;14.50;;;;;;;27.69;50.50;101143.25;6093173;23;20017;-81
2023/08/24 03:38:24;;;;;;;19.48;14.30;;;;;;;27.64;51.63;101122.16;6096911;23;20429;-79
2023/08/24 03:40:51;;;;;;;19.63;13.65;;;;;;;27.80;50.95;101136.16;6125110;23;20108;-76
2023/08/24 03:43:18;;;;;;;21.95;14.52;;;;;;;27.86;51.03;101155.16;6096546;23;20129;-79
2023/08/24 03:45:45;;;;;;;20.30;13.93;;;;;;;27.81;50.51;101141.34;6122443;23;20104;-80
2023/08/24 03:48:18;;;;;;;21.63;14.18;;;;;;;27.78;50.63;101149.19;6113339;23;20430;-79
2023/08/24 03:50:46;;;;;;;23.17;14.90;;;;;;;27.53;50.76;101119.44;6089443;23;20064;-79
2023/08/24 03:53:13;;;;;;;25.35;13.93;;;;;;;27.66;50.75;101146.47;6122226;23;20024;-79
2023/08/24 03:55:49;;;;;;;28.83;15.07;;;;;;;27.43;50.85;101120.88;6104348;23;20461;-79
2023/08/24 03:58:18;;;;;;;29.02;14.50;;;;;;;27.55;51.17;101145.41;6098870;23;20370;-79
2023/08/24 04:00:45;;;;;;;22.90;15.15;;;;;;;27.59;50.78;101151.22;6083803;23;20491;-79
2023/08/24 04:03:12;;;;;;;21.50;15.10;;;;;;;27.52;51.26;101143.13;6090463;23;20021;-79
2023/08/24 04:05:39;;;;;;;21.27;15.57;;;;;;;27.55;51.16;101150.00;6099733;23;20341;-79
2023/08/24 04:08:15;;;;;;;26.05;15.70;;;;;;;27.44;51.35;101133.41;6104160;23;20535;-78
2023/08/24 04:10:42;;;;;;;24.10;14.40;;;;;;;27.44;51.37;101127.13;6097521;23;20720;-78
2023/08/24 04:13:13;;;;;;;23.10;14.93;;;;;;;27.51;51.61;101138.75;6080303;23;20021;-80
2023/08/24 04:15:40;;;;;;;19.98;14.70;;;;;;;26.84;51.47;101024.53;6124481;23;20064;-76
2023/08/24 04:18:11;;;;;;;23.17;15.05;;;;;;;27.58;51.26;101144.09;6097615;23;20040;-78
2023/08/24 04:20:38;;;;;;;23.30;13.43;;;;;;;27.55;50.81;101137.22;6096562;23;20476;-77
2023/08/24 04:23:05;;;;;;;24.27;13.13;;;;;;;27.29;50.39;101103.06;6116714;23;20021;-77
2023/08/24 04:25:33;;;;;;;18.02;12.95;;;;;;;27.54;50.32;101142.91;6112962;23;20071;-77
2023/08/24 04:28:03;;;;;;;17.27;11.82;;;;;;;27.54;49.77;101142.91;6124454;23;20025;-78
2023/08/24 04:30:30;;;;;;;20.08;12.05;;;;;;;27.59;49.52;101156.66;6102434;23;20021;-78
2023/08/24 04:32:56;;;;;;;21.63;12.50;;;;;;;27.58;49.24;101147.66;6103929;23;20523;-79
2023/08/24 04:35:29;;;;;;;15.25;11.95;;;;;;;27.65;48.92;101153.00;6093036;23;20020;-78
2023/08/24 04:37:57;;;;;;;22.02;11.10;;;;;;;27.52;48.95;101123.22;6158266;23;20021;-78
2023/08/24 04:40:29;;;;;;;18.65;11.68;;;;;;;27.68;48.91;101149.78;6117999;23;20309;-79
2023/08/24 04:42:56;;;;;;;18.58;12.15;;;;;;;27.72;48.83;101156.44;6131566;23;20068;-79
2023/08/24 04:45:23;;;;;;;16.88;11.77;;;;;;;27.68;48.61;101155.25;6114242;23;20052;-78
2023/08/24 04:47:53;;;;;;;21.85;12.52;;;;;;;27.69;48.38;101148.72;6112433;23;20051;-78
2023/08/24 04:50:20;;;;;;;18.27;11.27;;;;;;;27.62;48.54;101145.28;6105992;23;20023;-78
2023/08/24 04:52:48;;;;;;;19.40;12.23;;;;;;;27.72;48.38;101159.19;6133510;23;20017;-79
2023/08/24 04:55:15;;;;;;;22.27;12.52;;;;;;;27.41;48.52;101112.09;6125531;23;20461;-79
2023/08/24 04:57:42;;;;;;;23.38;12.13;;;;;;;27.75;48.50;101157.88;6128534;23;20484;-80
2023/08/24 05:00:15;;;;;;;20.58;11.40;;;;;;;27.73;48.53;101170.91;6120654;23;20028;-78
2023/08/24 05:02:42;;;;;;;17.50;11.85;;;;;;;27.22;48.35;101089.53;6107026;23;20025;-77
2023/08/24 05:05:10;;;;;;;19.98;11.82;;;;;;;27.71;49.46;101166.50;6101827;23;20556;-78
2023/08/24 05:07:40;;;;;;;17.58;11.52;;;;;;;27.73;49.40;101160.81;6119749;23;20091;-77
2023/08/24 05:10:07;;;;;;;16.17;12.13;;;;;;;27.61;52.26;101108.19;6124275;23;20041;-78
2023/08/24 05:12:35;;;;;;;18.98;11.55;;;;;;;27.70;49.16;101121.22;6136837;23;20020;-78
2023/08/24 05:15:03;;;;;;;19.45;13.57;;;;;;;27.91;48.62;101174.38;6143780;23;20348;-78
2023/08/24 05:17:31;;;;;;;15.75;12.18;;;;;;;27.88;48.61;101177.56;6129929;23;20048;-79
2023/08/24 05:19:59;;;;;;;20.48;12.60;;;;;;;27.80;49.36;101161.53;6090459;23;20314;-79
2023/08/24 05:22:26;;;;;;;18.30;11.95;;;;;;;27.82;49.22;101172.22;6108816;23;20047;-79
2023/08/24 05:24:52;;;;;;;27.73;11.30;;;;;;;27.76;49.21;101173.97;6130938;23;20308;-79
2023/08/24 05:27:19;;;;;;;21.90;12.55;;;;;;;27.69;49.33;101156.91;6135179;23;20048;-79
2023/08/24 05:29:46;;;;;;;20.05;11.63;;;;;;;27.82;49.37;101173.06;6129106;23;20323;-78
2023/08/24 05:32:12;;;;;;;14.02;11.25;;;;;;;27.72;49.10;101153.72;6110822;23;20500;-79
2023/08/24 05:34:39;;;;;;;18.63;11.30;;;;;;;27.85;48.97;101171.78;6114603;23;20063;-78
2023/08/24 05:37:06;;;;;;;16.95;10.90;;;;;;;27.76;48.60;101162.25;6122706;23;20013;-78
2023/08/24 05:39:33;;;;;;;23.73;11.73;;;;;;;27.74;49.09;101159.75;6123593;23;20071;-78
2023/08/24 05:42:03;;;;;;;20.08;11.73;;;;;;;27.86;48.97;101179.69;6109039;23;20020;-80
2023/08/24 05:44:30;;;;;;;20.40;12.15;;;;;;;27.96;49.09;101200.09;6123158;23;20063;-79
2023/08/24 05:47:02;;;;;;;20.60;11.85;;;;;;;27.84;48.62;101176.41;6087127;23;20021;-79
2023/08/24 05:49:30;;;;;;;25.27;11.60;;;;;;;28.03;48.19;101203.56;6132044;23;20028;-79
2023/08/24 05:51:56;;;;;;;18.85;10.63;;;;;;;28.06;47.95;101205.78;6129750;23;20044;-80
2023/08/24 05:54:23;;;;;;;21.33;11.40;;;;;;;28.12;47.63;101211.13;6120489;23;20021;-78
2023/08/24 05:56:50;;;;;;;15.00;10.63;;;;;;;28.20;47.30;101206.38;6127941;23;20087;-77
2023/08/24 05:59:17;;;;;;;19.60;10.93;;;;;;;28.29;47.35;101207.69;6120157;23;20017;-78
2023/08/24 06:01:46;;;;;;;20.90;11.25;;;;;;;28.31;46.86;101198.19;6111590;23;20028;-79
2023/08/24 06:04:13;;;;;;;18.73;10.57;;;;;;;28.23;45.99;101179.47;6100798;23;20526;-78
2023/08/24 06:06:40;;;;;;;24.00;11.45;;;;;;;28.42;46.80;101203.84;6111628;23;20398;-79
2023/08/24 06:09:07;;;;;;;23.10;11.95;;;;;;;28.46;47.00;101200.44;6117799;23;20027;-78
2023/08/24 06:11:36;;;;;;;15.73;11.13;;;;;;;28.37;46.75;101171.81;6134985;23;20021;-79
2023/08/24 06:14:07;;;;;;;16.27;11.68;;;;;;;28.53;46.78;101205.78;6130669;23;20033;-79
2023/08/24 06:16:36;;;;;;;16.93;11.13;;;;;;;28.44;47.04;101185.34;6120175;23;20021;-80
2023/08/24 06:19:03;;;;;;;20.02;11.38;;;;;;;28.55;46.92;101207.19;6130637;23;20025;-78
2023/08/24 06:21:32;;;;;;;21.77;11.75;;;;;;;28.33;46.75;101155.09;6111801;23;20245;-79
2023/08/24 06:24:00;;;;;;;27.27;12.13;;;;;;;28.59;46.62;101191.13;6124029;23;20479;-79
2023/08/24 06:26:27;;;;;;;18.17;10.57;;;;;;;28.50;46.17;101168.03;6129387;23;20492;-77
2023/08/24 06:28:55;;;;;;;21.15;11.55;;;;;;;28.80;46.36;101206.03;6116547;23;20020;-78
2023/08/24 06:31:22;;;;;;;18.27;10.57;;;;;;;28.45;46.30;101129.63;6116341;23;20079;-78
2023/08/24 06:33:49;;;;;;;13.65;11.32;;;;;;;28.93;45.98;101204.91;6153245;23;20024;-78
2023/08/24 06:36:16;;;;;;;20.05;10.90;;;;;;;29.00;45.44;101211.06;6121339;23;20028;-79
2023/08/24 06:38:43;;;;;;;17.05;10.98;;;;;;;28.98;44.93;101208.59;6147663;23;20092;-77
2023/08/24 06:41:12;;;;;;;24.73;10.95;;;;;;;29.00;45.52;101188.38;6129216;23;20492;-77
2023/08/24 06:43:39;;;;;;;21.02;11.32;;;;;;;29.09;45.30;101197.88;6140353;23;20496;-77
2023/08/24 06:46:09;;;;;;;14.60;10.80;;;;;;;29.05;45.65;101175.63;6118090;23;20032;-79
2023/08/24 06:48:41;;;;;;;16.42;10.35;;;;;;;29.26;45.34;101187.78;6130518;23;20020;-78
2023/08/24 06:51:09;;;;;;;14.65;10.07;;;;;;;29.32;44.46;101197.75;6120136;23;20025;-77
2023/08/24 06:53:42;;;;;;;14.10;9.68;;;;;;;29.50;47.20;101199.41;6120981;23;20017;-79
2023/08/24 06:56:10;;;;;;;11.20;9.90;;;;;;;29.49;46.71;101181.34;6112273;23;20635;-77
2023/08/24 06:58:38;;;;;;;20.92;10.15;;;;;;;29.61;43.93;101175.78;6102862;23;20021;-79
2023/08/24 07:01:06;;;;;;;15.38;10.15;;;;;;;29.75;46.18;101189.97;6121817;23;20375;-78
2023/08/24 07:03:34;;;;;;;13.25;10.63;;;;;;;29.78;46.50;101195.81;6112484;23;20053;-78
2023/08/24 07:06:00;;;;;;;32.97;11.13;;;;;;;29.67;46.44;101171.25;6127661;23;20020;-77
2023/08/24 07:08:30;;;;;;;19.60;11.43;;;;;;;29.88;44.74;101197.84;6101724;23;20369;-77
2023/08/24 07:10:57;;;;;;;17.58;12.20;;;;;;;29.86;44.48;101185.47;6127176;23;20027;-79
2023/08/24 07:13:24;;;;;;;20.50;11.38;;;;;;;29.85;45.05;101165.50;6117752;23;20017;-78
2023/08/24 07:15:51;;;;;;;14.65;10.73;;;;;;;29.99;45.14;101185.97;6099289;23;20021;-79
2023/08/24 07:18:18;;;;;;;12.13;9.27;;;;;;;29.93;46.27;101170.56;6138372;23;20292;-80
2023/08/24 07:20:44;;;;;;;14.23;10.50;;;;;;;30.14;46.53;101192.75;6108961;23;20107;-80
2023/08/24 07:23:11;;;;;;;14.15;11.07;;;;;;;29.91;45.74;101159.03;6121411;23;20337;-78
2023/08/24 07:25:38;;;;;;;16.63;10.38;;;;;;;30.26;48.72;101193.47;6120641;23;20021;-80
2023/08/24 07:28:05;;;;;;;19.42;10.90;;;;;;;30.14;46.85;101184.53;6121399;23;20529;-79
2023/08/24 07:30:41;;;;;;;15.45;11.13;;;;;;;30.22;46.13;101184.94;6128397;23;20333;-80
2023/08/24 07:33:10;;;;;;;17.02;10.68;;;;;;;30.27;45.52;101197.91;6121472;23;20345;-79
2023/08/24 07:35:39;;;;;;;23.30;11.45;;;;;;;29.54;43.98;101071.16;6120649;23;20021;-80
2023/08/24 07:38:05;;;;;;;14.52;10.63;;;;;;;30.07;45.58;101140.06;6129558;23;20096;-78
2023/08/24 07:40:32;;;;;;;19.33;10.98;;;;;;;30.49;46.67;101194.31;6145074;23;20166;-79
2023/08/24 07:43:00;;;;;;;17.33;11.52;;;;;;;30.45;44.87;101194.81;6125338;23;20024;-79
2023/08/24 07:45:27;;;;;;;14.38;10.13;;;;;;;30.38;47.31;101166.78;6114043;23;20314;-78
2023/08/24 07:47:54;;;;;;;18.98;11.48;;;;;;;30.49;46.16;101197.03;6117972;23;20162;-77
2023/08/24 07:50:22;;;;;;;14.80;11.52;;;;;;;30.47;44.07;101185.53;6125986;23;20087;-78
2023/08/24 07:52:49;;;;;;;21.25;11.40;;;;;;;30.57;44.47;101191.97;6164335;23;20027;-80
2023/08/24 07:55:16;;;;;;;20.23;11.60;;;;;;;30.37;44.42;101154.19;6119900;23;20075;-80
2023/08/24 07:57:43;;;;;;;14.95;11.52;;;;;;;30.30;43.37;101134.38;6105490;23;20017;-80
2023/08/24 08:00:14;;;;;;;26.15;12.45;;;;;;;30.56;42.81;101162.91;6102541;23;20107;-81
2023/08/24 08:02:41;;;;;;;22.05;10.18;;;;;;;30.50;43.59;101157.63;6148593;23;20681;-79
2023/08/24 08:05:12;;;;;;;21.73;10.75;;;;;;;30.67;45.49;101191.25;6156952;23;20451;-80
2023/08/24 08:07:39;;;;;;;14.75;10.93;;;;;;;30.47;43.54;101158.16;6119534;23;20032;-80
2023/08/24 08:10:06;;;;;;;24.38;11.43;;;;;;;30.51;44.87;101176.53;6148080;23;20174;-80
2023/08/24 08:12:34;;;;;;;14.63;10.65;;;;;;;30.76;45.69;101203.41;6122176;23;20025;-78
2023/08/24 08:15:01;;;;;;;14.45;10.38;;;;;;;30.74;46.35;101197.34;6134128;23;20464;-79
2023/08/24 08:17:30;;;;;;;16.92;10.73;;;;;;;30.75;45.76;101192.69;6121975;23;20029;-79
2023/08/24 08:19:57;;;;;;;13.20;10.52;;;;;;;30.97;46.71;101209.13;6114163;23;20491;-78
2023/08/24 08:22:25;;;;;;;13.75;9.45;;;;;;;30.85;45.39;101188.22;6123803;23;20028;-79
2023/08/24 08:24:54;;;;;;;14.65;9.77;;;;;;;30.28;45.89;101097.38;6113999;23;20430;-81
2023/08/24 08:27:23;;;;;;;12.32;9.80;;;;;;;30.97;47.53;101209.13;6147467;23;20021;-79
2023/08/24 08:29:52;;;;;;;12.98;9.80;;;;;;;30.80;45.77;101185.38;6156515;23;20445;-80
2023/08/24 08:32:19;;;;;;;10.93;8.82;;;;;;;30.88;44.84;101193.16;6154913;23;20087;-79
2023/08/24 08:34:46;;;;;;;12.93;9.40;;;;;;;30.97;46.04;101185.28;6137651;23;20083;-80
2023/08/24 08:37:12;;;;;;;11.93;10.18;;;;;;;30.98;44.92;101186.13;6123409;23;20357;-80
2023/08/24 08:39:39;;;;;;;14.75;9.85;;;;;;;31.01;46.06;101191.09;6133506;23;20017;-79
2023/08/24 08:42:12;;;;;;;11.05;9.30;;;;;;;31.03;46.96;101186.19;6118426;23;20021;-80
2023/08/24 08:44:41;;;;;;;16.85;10.00;;;;;;;30.90;45.91;101178.38;6134774;23;20465;-79
2023/08/24 08:47:11;;;;;;;11.73;10.15;;;;;;;30.96;44.83;101196.53;6120552;23;20017;-81
2023/08/24 08:49:39;;;;;;;14.98;10.18;;;;;;;30.92;45.00;101173.44;6152780;23;20025;-81
2023/08/24 08:52:07;;;;;;;12.93;10.40;;;;;;;30.85;45.73;101158.06;6114749;23;20497;-81
2023/08/24 08:54:34;;;;;;;16.52;10.63;;;;;;;31.27;45.17;101197.66;6132524;23;20104;-80
2023/08/24 08:57:01;;;;;;;10.18;9.18;;;;;;;31.09;44.79;101187.88;6120787;23;20017;-79
2023/08/24 08:59:30;;;;;;;18.55;9.88;;;;;;;31.14;44.89;101207.13;6105051;23;20017;-79
2023/08/24 09:02:00;;;;;;;13.60;10.10;;;;;;;31.09;45.56;101196.09;6125201;23;20472;-80
2023/08/24 09:04:29;;;;;;;20.90;10.93;;;;;;;31.04;40.94;101176.88;6140735;23;20021;-79
2023/08/24 09:06:56;;;;;;;16.35;10.40;;;;;;;31.19;40.98;101184.41;6112599;23;20350;-80
2023/08/24 09:09:26;;;;;;;14.05;9.63;;;;;;;31.44;44.66;101211.28;6089210;23;20020;-78
2023/08/24 09:11:53;;;;;;;13.50;9.18;;;;;;;31.24;45.13;101179.81;6120860;23;20072;-80
2023/08/24 09:14:20;;;;;;;13.95;9.55;;;;;;;31.39;45.58;101192.00;6113338;23;20021;-79
2023/08/24 09:16:47;;;;;;;12.90;9.35;;;;;;;31.48;45.92;101202.28;6110360;23;20655;-79
2023/08/24 09:19:16;;;;;;;11.93;9.93;;;;;;;31.61;45.87;101190.03;6133050;23;20025;-80
2023/08/24 09:21:43;;;;;;;27.30;12.98;;;;;;;31.40;40.17;101164.34;6112565;23;20029;-79
2023/08/24 09:24:11;;;;;;;23.55;11.57;;;;;;;31.48;39.13;101157.53;6120278;23;20025;-78
2023/08/24 09:26:44;;;;;;;14.70;10.20;;;;;;;31.82;38.31;101181.91;6120796;23;20099;-78
2023/08/24 09:29:15;;;;;;;14.30;9.80;;;;;;;31.91;42.18;101185.81;6121085;23;20647;-80
2023/08/24 09:31:46;;;;;;;15.73;10.32;;;;;;;32.02;42.17;101198.56;6152238;23;20028;-81
2023/08/24 09:34:13;;;;;;;17.27;9.07;;;;;;;31.70;42.66;101139.03;6122239;23;20025;-80
2023/08/24 09:36:40;;;;;;;14.25;10.65;;;;;;;32.12;42.14;101184.06;6103425;23;20025;-80
2023/08/24 09:39:07;;;;;;;15.93;9.55;;;;;;;32.20;41.90;101174.47;6109920;23;20017;-81
2023/08/24 09:41:47;;;;;;;13.05;9.15;;;;;;;32.05;43.40;101139.53;6101747;23;20027;-80
2023/08/24 09:44:14;;;;;;;13.95;9.27;;;;;;;31.97;40.45;101132.63;6127043;23;20029;-80
2023/08/24 09:46:43;;;;;;;14.75;10.05;;;;;;;32.35;42.98;101178.09;6133101;23;20025;-80
2023/08/24 09:49:11;;;;;;;13.57;8.75;;;;;;;32.22;43.49;101145.66;6129607;23;20020;-80
2023/08/24 09:51:40;;;;;;;17.38;10.05;;;;;;;32.36;41.05;101157.81;6133230;23;20024;-80
2023/08/24 09:54:09;;;;;;;11.68;9.32;;;;;;;32.67;43.88;101168.91;6129361;23;20021;-80
2023/08/24 09:56:40;;;;;;;10.65;9.55;;;;;;;32.21;40.73;101126.69;6122491;23;20017;-80
2023/08/24 09:59:18;;;;;;;16.42;10.25;;;;;;;32.47;41.36;101152.34;6135059;23;20091;-81
2023/08/24 10:01:47;;;;;;;14.13;9.77;;;;;;;32.52;41.27;101139.47;6158100;23;20025;-81
2023/08/24 10:04:22;;;;;;;11.75;10.25;;;;;;;32.85;36.84;101137.34;6121832;23;20323;-80
2023/08/24 10:07:06;;;;;;;12.23;9.45;;;;;;;33.17;40.50;101147.31;6138726;23;20048;-82
2023/08/24 10:09:44;;;;;;;11.75;9.70;;;;;;;33.14;39.87;101140.44;6136459;23;20461;-80
2023/08/24 10:12:14;;;;;;;19.27;10.95;;;;;;;33.31;36.51;101142.91;6129724;23;20031;-79
2023/08/24 10:14:56;;;;;;;13.68;10.65;;;;;;;33.38;38.89;101140.69;6142994;23;20021;-79
2023/08/24 10:17:23;;;;;;;15.32;10.32;;;;;;;33.29;38.81;101138.78;6135413;23;20453;-79
2023/08/24 10:19:51;;;;;;;11.30;9.82;;;;;;;33.35;39.14;101130.25;6140378;23;20025;-80
2023/08/24 10:22:22;;;;;;;12.50;10.65;;;;;;;33.52;40.06;101140.13;6143605;23;20100;-81
2023/08/24 10:24:51;;;;;;;17.10;10.32;;;;;;;33.37;37.02;101081.25;6144906;23;20095;-79
2023/08/24 10:27:19;;;;;;;19.00;11.40;;;;;;;33.99;35.49;101138.97;6141030;23;20017;-79
2023/08/24 10:29:45;;;;;;;15.82;9.98;;;;;;;34.13;38.20;101129.03;6119626;23;20032;-80
2023/08/24 10:32:13;;;;;;;13.13;9.98;;;;;;;34.35;38.23;101133.31;6130638;23;20027;-80
2023/08/24 10:34:43;;;;;;;9.85;8.57;;;;;;;33.95;40.16;101094.59;6137394;23;20467;-79
2023/08/24 10:37:11;;;;;;;13.57;9.82;;;;;;;33.35;36.12;101066.13;6127225;23;20028;-79
2023/08/24 10:39:46;;;;;;;15.50;9.40;;;;;;;33.76;39.34;101123.88;6163624;23;20017;-79
2023/08/24 10:42:14;;;;;;;12.23;9.48;;;;;;;33.78;39.71;101105.97;6145206;23;20445;-80
2023/08/24 10:44:44;;;;;;;;;;;;;;;33.91;39.04;101137.59;6141986;23;20013;-79
2023/08/24 10:47:18;;;;;;;13.18;10.82;;;;;;;34.01;39.73;101136.75;6134071;23;19920;-79
2023/08/24 10:49:59;;;;;;;15.82;10.40;;;;;;;34.03;40.37;101138.13;6163980;23;20436;-80
2023/08/24 10:52:36;;;;;;;;;;;;;;;34.04;37.75;101136.19;6125153;23;20021;-80
2023/08/24 10:55:04;;;;;;;17.80;10.77;;;;;;;34.13;38.22;101122.66;6127662;23;19920;-79
2023/08/24 10:57:37;;;;;;;11.18;9.18;;;;;;;34.24;37.48;101094.78;6125246;23;20441;-81
2023/08/24 11:00:11;;;;;;;14.18;9.73;;;;;;;34.33;38.70;101121.75;6145348;23;20079;-80
2023/08/24 11:02:51;;;;;;;15.25;9.50;;;;;;;34.08;40.28;101115.28;6143469;23;20025;-80
2023/08/24 11:05:27;;;;;;;12.80;9.95;;;;;;;34.10;38.09;101093.75;6123533;23;20025;-79
2023/08/24 11:08:05;;;;;;;11.70;9.43;;;;;;;34.32;38.42;101100.81;6163949;23;20771;-79
2023/08/24 11:10:41;;;;;;;17.08;10.68;;;;;;;34.05;38.24;101053.25;6140710;23;20025;-79
2023/08/24 11:13:17;;;;;;;17.50;10.10;;;;;;;34.61;35.71;101073.38;6176702;23;20016;-80
2023/08/24 11:15:44;;;;;;;12.05;10.75;;;;;;;34.94;34.91;101081.97;6138686;23;20021;-77
2023/08/24 11:18:39;;;;;;;11.15;9.95;;;;;;;34.80;37.36;101059.72;6138546;23;20472;-79
2023/08/24 11:21:08;;;;;;;12.43;10.18;;;;;;;34.83;37.72;101075.69;6119713;23;20021;-79